sensor_id;sensor_type;location;lat;lon;timestamp;P1;durP1;ratioP1;P2;durP2;ratioP2
42092;SDS011;28974;50.316;18.960;2023-03-11T00:00:27;33.42;;;12.20;;
42092;SDS011;28974;50.316;18.960;2023-03-11T00:12:28;12.18;;;6.13;;
42092;SDS011;28974;50.316;18.960;2023-03-11T00:24:28;7.68;;;3.45;;
42092;SDS011;28974;50.316;18.960;2023-03-11T00:36:29;12.68;;;3.10;;
42092;SDS011;28974;50.316;18.960;2023-03-11T00:48:30;7.90;;;4.10;;
42092;SDS011;28974;50.316;18.960;2023-03-11T01:00:31;9.75;;;3.65;;
42092;SDS011;28974;50.316;18.960;2023-03-11T01:12:31;6.03;;;2.72;;
42092;SDS011;28974;50.316;18.960;2023-03-11T01:24:34;5.82;;;2.00;;
42092;SDS011;28974;50.316;18.960;2023-03-11T01:36:38;6.65;;;2.38;;
42092;SDS011;28974;50.316;18.960;2023-03-11T01:48:39;4.57;;;1.70;;
42092;SDS011;28974;50.316;18.960;2023-03-11T02:00:41;2.22;;;1.80;;
42092;SDS011;28974;50.316;18.960;2023-03-11T02:12:43;5.47;;;1.88;;
42092;SDS011;28974;50.316;18.960;2023-03-11T02:37:05;12.30;;;3.38;;
42092;SDS011;28974;50.316;18.960;2023-03-11T02:49:07;5.70;;;2.38;;
42092;SDS011;28974;50.316;18.960;2023-03-11T03:01:08;6.75;;;2.40;;
42092;SDS011;28974;50.316;18.960;2023-03-11T03:13:09;6.32;;;2.80;;
42092;SDS011;28974;50.316;18.960;2023-03-11T03:25:09;7.07;;;2.40;;
42092;SDS011;28974;50.316;18.960;2023-03-11T03:37:10;2.60;;;1.40;;
42092;SDS011;28974;50.316;18.960;2023-03-11T03:49:11;4.47;;;2.65;;
42092;SDS011;28974;50.316;18.960;2023-03-11T04:01:12;3.90;;;1.92;;
42092;SDS011;28974;50.316;18.960;2023-03-11T04:13:14;6.38;;;2.60;;
42092;SDS011;28974;50.316;18.960;2023-03-11T04:25:17;8.20;;;3.58;;
42092;SDS011;28974;50.316;18.960;2023-03-11T04:37:18;3.33;;;2.40;;
42092;SDS011;28974;50.316;18.960;2023-03-11T04:49:19;3.78;;;2.00;;
42092;SDS011;28974;50.316;18.960;2023-03-11T05:01:20;5.95;;;2.30;;
42092;SDS011;28974;50.316;18.960;2023-03-11T05:13:21;2.75;;;2.08;;
42092;SDS011;28974;50.316;18.960;2023-03-11T05:25:22;6.00;;;2.55;;
42092;SDS011;28974;50.316;18.960;2023-03-11T05:37:23;4.00;;;2.33;;
42092;SDS011;28974;50.316;18.960;2023-03-11T05:49:25;4.35;;;2.13;;
42092;SDS011;28974;50.316;18.960;2023-03-11T06:01:27;3.78;;;2.70;;
42092;SDS011;28974;50.316;18.960;2023-03-11T06:13:27;11.73;;;4.30;;
42092;SDS011;28974;50.316;18.960;2023-03-11T06:25:28;4.78;;;3.05;;
42092;SDS011;28974;50.316;18.960;2023-03-11T06:37:28;9.70;;;4.07;;
42092;SDS011;28974;50.316;18.960;2023-03-11T06:49:30;7.32;;;4.72;;
42092;SDS011;28974;50.316;18.960;2023-03-11T07:01:31;13.70;;;6.28;;
42092;SDS011;28974;50.316;18.960;2023-03-11T07:13:34;10.63;;;6.53;;
42092;SDS011;28974;50.316;18.960;2023-03-11T07:25:35;13.00;;;8.43;;
42092;SDS011;28974;50.316;18.960;2023-03-11T07:37:35;11.65;;;6.00;;
42092;SDS011;28974;50.316;18.960;2023-03-11T07:49:35;15.20;;;8.85;;
42092;SDS011;28974;50.316;18.960;2023-03-11T08:01:36;23.33;;;11.25;;
42092;SDS011;28974;50.316;18.960;2023-03-11T08:13:43;17.85;;;10.55;;
42092;SDS011;28974;50.316;18.960;2023-03-11T08:25:44;16.58;;;8.85;;
42092;SDS011;28974;50.316;18.960;2023-03-11T08:37:44;16.15;;;8.00;;
42092;SDS011;28974;50.316;18.960;2023-03-11T08:49:44;14.35;;;8.30;;
42092;SDS011;28974;50.316;18.960;2023-03-11T09:01:45;16.30;;;6.88;;
42092;SDS011;28974;50.316;18.960;2023-03-11T09:13:46;18.08;;;6.53;;
42092;SDS011;28974;50.316;18.960;2023-03-11T09:25:46;24.55;;;9.45;;
42092;SDS011;28974;50.316;18.960;2023-03-11T09:37:46;13.88;;;6.43;;
42092;SDS011;28974;50.316;18.960;2023-03-11T10:01:53;21.27;;;9.85;;
42092;SDS011;28974;50.316;18.960;2023-03-11T10:13:57;17.25;;;8.23;;
42092;SDS011;28974;50.316;18.960;2023-03-11T10:26:18;11.80;;;6.43;;
42092;SDS011;28974;50.316;18.960;2023-03-11T10:38:25;11.48;;;6.63;;
42092;SDS011;28974;50.316;18.960;2023-03-11T10:50:27;14.70;;;7.97;;
42092;SDS011;28974;50.316;18.960;2023-03-11T11:02:40;17.27;;;8.10;;
42092;SDS011;28974;50.316;18.960;2023-03-11T11:14:49;19.17;;;8.80;;
42092;SDS011;28974;50.316;18.960;2023-03-11T11:39:14;12.80;;;6.07;;
42092;SDS011;28974;50.316;18.960;2023-03-11T11:51:18;7.70;;;4.67;;
42092;SDS011;28974;50.316;18.960;2023-03-11T12:15:20;14.25;;;7.03;;
42092;SDS011;28974;50.316;18.960;2023-03-11T12:27:24;12.43;;;6.20;;
42092;SDS011;28974;50.316;18.960;2023-03-11T12:39:26;11.65;;;5.95;;
42092;SDS011;28974;50.316;18.960;2023-03-11T13:03:41;14.85;;;6.97;;
42092;SDS011;28974;50.316;18.960;2023-03-11T13:15:44;11.88;;;6.78;;
42092;SDS011;28974;50.316;18.960;2023-03-11T13:27:44;16.98;;;8.57;;
42092;SDS011;28974;50.316;18.960;2023-03-11T13:52:01;17.60;;;8.32;;
42092;SDS011;28974;50.316;18.960;2023-03-11T14:04:02;23.67;;;9.77;;
42092;SDS011;28974;50.316;18.960;2023-03-11T14:16:16;17.48;;;9.00;;
42092;SDS011;28974;50.316;18.960;2023-03-11T14:28:18;17.90;;;8.02;;
42092;SDS011;28974;50.316;18.960;2023-03-11T14:40:23;22.75;;;8.57;;
42092;SDS011;28974;50.316;18.960;2023-03-11T14:52:31;18.67;;;7.90;;
42092;SDS011;28974;50.316;18.960;2023-03-11T15:04:33;13.63;;;5.95;;
42092;SDS011;28974;50.316;18.960;2023-03-11T15:16:35;17.23;;;7.35;;
42092;SDS011;28974;50.316;18.960;2023-03-11T15:28:36;17.38;;;7.80;;
42092;SDS011;28974;50.316;18.960;2023-03-11T15:40:37;12.63;;;5.82;;
42092;SDS011;28974;50.316;18.960;2023-03-11T15:52:38;16.73;;;6.95;;
42092;SDS011;28974;50.316;18.960;2023-03-11T16:04:38;14.68;;;5.90;;
42092;SDS011;28974;50.316;18.960;2023-03-11T16:16:38;12.88;;;5.07;;
42092;SDS011;28974;50.316;18.960;2023-03-11T16:28:39;10.30;;;5.55;;
42092;SDS011;28974;50.316;18.960;2023-03-11T16:40:39;20.10;;;8.57;;
42092;SDS011;28974;50.316;18.960;2023-03-11T16:52:40;20.65;;;7.43;;
42092;SDS011;28974;50.316;18.960;2023-03-11T17:04:40;20.17;;;7.47;;
42092;SDS011;28974;50.316;18.960;2023-03-11T17:16:41;19.25;;;7.57;;
42092;SDS011;28974;50.316;18.960;2023-03-11T17:28:41;18.73;;;8.30;;
42092;SDS011;28974;50.316;18.960;2023-03-11T17:40:42;20.85;;;10.10;;
42092;SDS011;28974;50.316;18.960;2023-03-11T17:52:44;17.80;;;7.10;;
42092;SDS011;28974;50.316;18.960;2023-03-11T18:04:48;18.50;;;7.68;;
42092;SDS011;28974;50.316;18.960;2023-03-11T18:16:51;19.98;;;8.00;;
42092;SDS011;28974;50.316;18.960;2023-03-11T18:28:51;31.35;;;9.75;;
42092;SDS011;28974;50.316;18.960;2023-03-11T18:40:55;25.40;;;10.88;;
42092;SDS011;28974;50.316;18.960;2023-03-11T18:52:56;27.85;;;12.43;;
42092;SDS011;28974;50.316;18.960;2023-03-11T19:04:57;43.97;;;15.27;;
42092;SDS011;28974;50.316;18.960;2023-03-11T19:16:58;41.08;;;15.52;;
42092;SDS011;28974;50.316;18.960;2023-03-11T19:28:58;32.97;;;12.75;;
42092;SDS011;28974;50.316;18.960;2023-03-11T19:41:03;38.78;;;13.00;;
42092;SDS011;28974;50.316;18.960;2023-03-11T19:53:04;30.90;;;10.83;;
42092;SDS011;28974;50.316;18.960;2023-03-11T20:05:04;30.23;;;12.43;;
42092;SDS011;28974;50.316;18.960;2023-03-11T20:17:05;30.05;;;12.40;;
42092;SDS011;28974;50.316;18.960;2023-03-11T20:29:05;38.45;;;13.68;;
42092;SDS011;28974;50.316;18.960;2023-03-11T20:41:06;45.58;;;17.90;;
42092;SDS011;28974;50.316;18.960;2023-03-11T20:53:08;41.50;;;16.27;;
42092;SDS011;28974;50.316;18.960;2023-03-11T21:05:09;52.25;;;18.38;;
42092;SDS011;28974;50.316;18.960;2023-03-11T21:17:10;49.47;;;19.67;;
42092;SDS011;28974;50.316;18.960;2023-03-11T21:29:10;45.08;;;16.92;;
42092;SDS011;28974;50.316;18.960;2023-03-11T21:41:15;32.75;;;13.32;;
42092;SDS011;28974;50.316;18.960;2023-03-11T21:53:16;40.15;;;16.80;;
42092;SDS011;28974;50.316;18.960;2023-03-11T22:05:16;31.77;;;13.13;;
42092;SDS011;28974;50.316;18.960;2023-03-11T22:17:17;23.48;;;12.02;;
42092;SDS011;28974;50.316;18.960;2023-03-11T22:29:17;22.23;;;10.38;;
42092;SDS011;28974;50.316;18.960;2023-03-11T22:41:17;22.73;;;10.73;;
42092;SDS011;28974;50.316;18.960;2023-03-11T22:53:19;24.45;;;12.18;;
42092;SDS011;28974;50.316;18.960;2023-03-11T23:05:22;28.45;;;11.07;;
42092;SDS011;28974;50.316;18.960;2023-03-11T23:17:22;32.85;;;14.00;;
42092;SDS011;28974;50.316;18.960;2023-03-11T23:29:23;27.10;;;12.10;;
42092;SDS011;28974;50.316;18.960;2023-03-11T23:41:23;28.27;;;13.25;;
42092;SDS011;28974;50.316;18.960;2023-03-11T23:53:24;32.80;;;15.20;;
